sensor_id;sensor_type;location;lat;lon;timestamp;pressure;altitude;pressure_sealevel;temperature;humidity
52105;BME280;38103;42.776;23.112;2022-12-29T00:02:18;94852.84;;;3.32;100.00
52105;BME280;38103;42.776;23.112;2022-12-29T00:04:44;94861.31;;;3.42;100.00
52105;BME280;38103;42.776;23.112;2022-12-29T00:07:10;94856.34;;;3.56;100.00
52105;BME280;38103;42.776;23.112;2022-12-29T00:09:36;94856.00;;;3.67;100.00
52105;BME280;38103;42.776;23.112;2022-12-29T00:12:03;94871.00;;;3.74;100.00
52105;BME280;38103;42.776;23.112;2022-12-29T00:14:28;94848.47;;;3.73;100.00
52105;BME280;38103;42.776;23.112;2022-12-29T00:17:13;94859.56;;;3.83;100.00
52105;BME280;38103;42.776;23.112;2022-12-29T00:19:38;94862.81;;;3.85;100.00
52105;BME280;38103;42.776;23.112;2022-12-29T00:22:22;94863.16;;;3.82;100.00
52105;BME280;38103;42.776;23.112;2022-12-29T00:25:12;94869.69;;;3.86;100.00
52105;BME280;38103;42.776;23.112;2022-12-29T00:27:57;94871.16;;;3.80;100.00
52105;BME280;38103;42.776;23.112;2022-12-29T00:30:41;94875.38;;;3.90;99.73
52105;BME280;38103;42.776;23.112;2022-12-29T00:33:28;94865.75;;;3.90;99.88
52105;BME280;38103;42.776;23.112;2022-12-29T00:36:36;94874.38;;;3.99;99.96
52105;BME280;38103;42.776;23.112;2022-12-29T00:39:10;94874.38;;;3.99;99.73
52105;BME280;38103;42.776;23.112;2022-12-29T00:41:55;94867.16;;;4.01;98.88
52105;BME280;38103;42.776;23.112;2022-12-29T00:44:39;94858.53;;;3.93;99.20
52105;BME280;38103;42.776;23.112;2022-12-29T00:47:05;94873.56;;;3.99;98.70
52105;BME280;38103;42.776;23.112;2022-12-29T00:49:30;94868.31;;;3.99;98.71
52105;BME280;38103;42.776;23.112;2022-12-29T00:52:11;94876.81;;;4.01;99.00
52105;BME280;38103;42.776;23.112;2022-12-29T00:54:39;94874.03;;;4.02;98.62
52105;BME280;38103;42.776;23.112;2022-12-29T00:57:08;94872.88;;;4.05;98.41
52105;BME280;38103;42.776;23.112;2022-12-29T00:59:38;94881.03;;;4.10;98.51
52105;BME280;38103;42.776;23.112;2022-12-29T01:02:04;94879.03;;;4.12;97.77
52105;BME280;38103;42.776;23.112;2022-12-29T01:04:29;94885.31;;;4.03;97.94
52105;BME280;38103;42.776;23.112;2022-12-29T01:06:55;94883.41;;;3.88;98.22
52105;BME280;38103;42.776;23.112;2022-12-29T01:09:20;94871.84;;;3.74;99.26
52105;BME280;38103;42.776;23.112;2022-12-29T01:12:06;94875.03;;;3.93;99.20
52105;BME280;38103;42.776;23.112;2022-12-29T01:14:32;94861.16;;;3.93;98.98
52105;BME280;38103;42.776;23.112;2022-12-29T01:16:58;94868.00;;;4.02;98.95
52105;BME280;38103;42.776;23.112;2022-12-29T01:19:24;94860.78;;;4.04;99.24
52105;BME280;38103;42.776;23.112;2022-12-29T01:21:50;94861.75;;;4.03;98.49
52105;BME280;38103;42.776;23.112;2022-12-29T01:24:17;94846.75;;;3.97;97.90
52105;BME280;38103;42.776;23.112;2022-12-29T01:26:43;94850.66;;;4.01;97.78
52105;BME280;38103;42.776;23.112;2022-12-29T01:29:09;94839.53;;;3.99;97.85
52105;BME280;38103;42.776;23.112;2022-12-29T01:31:35;94844.47;;;3.94;98.24
52105;BME280;38103;42.776;23.112;2022-12-29T01:34:00;94784.47;;;3.60;98.28
52105;BME280;38103;42.776;23.112;2022-12-29T01:36:26;94839.38;;;4.00;97.73
52105;BME280;38103;42.776;23.112;2022-12-29T01:38:52;94805.13;;;3.78;98.10
52105;BME280;38103;42.776;23.112;2022-12-29T01:41:17;94806.91;;;3.86;98.22
52105;BME280;38103;42.776;23.112;2022-12-29T01:46:34;94826.13;;;4.02;97.41
52105;BME280;38103;42.776;23.112;2022-12-29T01:49:16;94829.72;;;4.01;97.27
52105;BME280;38103;42.776;23.112;2022-12-29T01:51:47;94828.06;;;4.00;97.20
52105;BME280;38103;42.776;23.112;2022-12-29T01:54:23;94827.13;;;3.93;97.59
52105;BME280;38103;42.776;23.112;2022-12-29T01:56:52;94777.59;;;3.59;97.76
52105;BME280;38103;42.776;23.112;2022-12-29T01:59:22;94829.47;;;3.79;98.07
52105;BME280;38103;42.776;23.112;2022-12-29T02:01:50;94804.03;;;3.64;98.48
52105;BME280;38103;42.776;23.112;2022-12-29T02:04:15;94820.34;;;3.75;98.22
52105;BME280;38103;42.776;23.112;2022-12-29T02:06:46;94823.94;;;3.74;98.12
52105;BME280;38103;42.776;23.112;2022-12-29T02:09:14;94825.25;;;3.78;98.22
52105;BME280;38103;42.776;23.112;2022-12-29T02:11:40;94825.56;;;3.75;98.43
52105;BME280;38103;42.776;23.112;2022-12-29T02:14:10;94816.75;;;3.76;98.54
52105;BME280;38103;42.776;23.112;2022-12-29T02:17:12;94823.94;;;3.74;98.60
52105;BME280;38103;42.776;23.112;2022-12-29T02:43:38;94821.41;;;3.49;99.75
52105;BME280;38103;42.776;23.112;2022-12-29T02:46:11;94818.47;;;3.43;99.70
52105;BME280;38103;42.776;23.112;2022-12-29T02:49:04;94817.19;;;3.39;100.00
52105;BME280;38103;42.776;23.112;2022-12-29T02:51:37;94814.41;;;3.41;100.00
52105;BME280;38103;42.776;23.112;2022-12-29T02:54:05;94806.41;;;3.42;100.00
52105;BME280;38103;42.776;23.112;2022-12-29T02:56:49;94814.28;;;3.34;100.00
52105;BME280;38103;42.776;23.112;2022-12-29T02:59:15;94805.50;;;3.18;100.00
52105;BME280;38103;42.776;23.112;2022-12-29T03:01:55;94795.03;;;3.18;100.00
52105;BME280;38103;42.776;23.112;2022-12-29T03:18:56;94795.66;;;3.29;100.00
52105;BME280;38103;42.776;23.112;2022-12-29T03:21:48;94785.53;;;3.26;100.00
52105;BME280;38103;42.776;23.112;2022-12-29T03:24:36;94796.31;;;3.22;100.00
52105;BME280;38103;42.776;23.112;2022-12-29T03:27:06;94797.31;;;3.21;100.00
52105;BME280;38103;42.776;23.112;2022-12-29T03:29:37;94797.47;;;3.20;99.33
52105;BME280;38103;42.776;23.112;2022-12-29T03:32:07;94784.28;;;3.05;99.50
52105;BME280;38103;42.776;23.112;2022-12-29T03:34:34;94805.50;;;3.18;99.88
52105;BME280;38103;42.776;23.112;2022-12-29T03:37:05;94810.22;;;3.15;99.22
52105;BME280;38103;42.776;23.112;2022-12-29T03:39:33;94814.97;;;3.11;97.65
52105;BME280;38103;42.776;23.112;2022-12-29T03:42:03;94815.63;;;3.05;97.24
52105;BME280;38103;42.776;23.112;2022-12-29T03:44:37;94825.94;;;2.98;97.69
52105;BME280;38103;42.776;23.112;2022-12-29T03:47:05;94818.91;;;2.90;98.26
52105;BME280;38103;42.776;23.112;2022-12-29T03:49:32;94800.97;;;2.70;98.65
52105;BME280;38103;42.776;23.112;2022-12-29T03:51:57;94812.06;;;2.72;99.08
52105;BME280;38103;42.776;23.112;2022-12-29T03:54:23;94823.16;;;2.66;99.45
52105;BME280;38103;42.776;23.112;2022-12-29T03:56:49;94825.78;;;2.49;100.00
52105;BME280;38103;42.776;23.112;2022-12-29T03:59:15;94821.50;;;2.31;100.00
52105;BME280;38103;42.776;23.112;2022-12-29T04:01:40;94815.31;;;2.24;100.00
52105;BME280;38103;42.776;23.112;2022-12-29T04:04:06;94821.44;;;2.06;100.00
52105;BME280;38103;42.776;23.112;2022-12-29T04:06:31;94818.44;;;1.67;100.00
52105;BME280;38103;42.776;23.112;2022-12-29T04:08:57;94769.34;;;1.19;100.00
52105;BME280;38103;42.776;23.112;2022-12-29T04:11:22;94812.56;;;1.74;100.00
52105;BME280;38103;42.776;23.112;2022-12-29T04:13:48;94812.91;;;1.79;100.00
52105;BME280;38103;42.776;23.112;2022-12-29T04:16:14;94817.16;;;1.88;100.00
52105;BME280;38103;42.776;23.112;2022-12-29T04:18:39;94814.00;;;1.68;100.00
52105;BME280;38103;42.776;23.112;2022-12-29T04:21:05;94816.72;;;1.58;100.00
52105;BME280;38103;42.776;23.112;2022-12-29T04:23:33;94817.38;;;1.52;100.00
52105;BME280;38103;42.776;23.112;2022-12-29T04:25:59;94822.94;;;1.65;100.00
52105;BME280;38103;42.776;23.112;2022-12-29T04:28:25;94817.47;;;1.77;100.00
52105;BME280;38103;42.776;23.112;2022-12-29T04:30:51;94806.56;;;1.82;100.00
52105;BME280;38103;42.776;23.112;2022-12-29T04:33:16;94825.84;;;1.97;100.00
52105;BME280;38103;42.776;23.112;2022-12-29T04:35:42;94818.97;;;1.96;100.00
52105;BME280;38103;42.776;23.112;2022-12-29T04:38:08;94832.38;;;2.01;100.00
52105;BME280;38103;42.776;23.112;2022-12-29T04:40:35;94830.25;;;2.05;100.00
52105;BME280;38103;42.776;23.112;2022-12-29T04:43:00;94832.56;;;2.08;100.00
52105;BME280;38103;42.776;23.112;2022-12-29T04:45:26;94838.44;;;2.10;100.00
52105;BME280;38103;42.776;23.112;2022-12-29T04:47:51;94803.47;;;1.86;100.00
52105;BME280;38103;42.776;23.112;2022-12-29T04:50:17;94844.81;;;2.16;100.00
52105;BME280;38103;42.776;23.112;2022-12-29T04:52:43;94832.56;;;2.08;100.00
52105;BME280;38103;42.776;23.112;2022-12-29T04:55:08;94846.63;;;2.24;100.00
52105;BME280;38103;42.776;23.112;2022-12-29T04:57:34;94825.22;;;2.12;100.00
52105;BME280;38103;42.776;23.112;2022-12-29T05:00:00;94846.78;;;2.31;100.00
52105;BME280;38103;42.776;23.112;2022-12-29T05:02:25;94849.22;;;2.32;100.00
52105;BME280;38103;42.776;23.112;2022-12-29T05:04:50;94849.56;;;2.38;100.00
52105;BME280;38103;42.776;23.112;2022-12-29T05:07:16;94851.69;;;2.42;100.00
52105;BME280;38103;42.776;23.112;2022-12-29T05:09:42;94851.84;;;2.41;100.00
52105;BME280;38103;42.776;23.112;2022-12-29T05:12:07;94853.50;;;2.42;100.00
52105;BME280;38103;42.776;23.112;2022-12-29T05:14:32;94837.81;;;2.33;100.00
52105;BME280;38103;42.776;23.112;2022-12-29T05:20:20;94858.72;;;2.42;100.00
52105;BME280;38103;42.776;23.112;2022-12-29T05:22:45;94857.09;;;2.41;100.00
52105;BME280;38103;42.776;23.112;2022-12-29T05:25:11;94855.78;;;2.45;100.00
52105;BME280;38103;42.776;23.112;2022-12-29T05:27:36;94854.50;;;2.49;100.00
52105;BME280;38103;42.776;23.112;2022-12-29T05:30:03;94853.81;;;2.55;100.00
52105;BME280;38103;42.776;23.112;2022-12-29T05:32:28;94838.50;;;2.44;100.00
52105;BME280;38103;42.776;23.112;2022-12-29T05:34:54;94862.00;;;2.61;100.00
52105;BME280;38103;42.776;23.112;2022-12-29T05:37:19;94863.63;;;2.62;100.00
52105;BME280;38103;42.776;23.112;2022-12-29T05:39:45;94863.97;;;2.67;100.00
52105;BME280;38103;42.776;23.112;2022-12-29T05:42:10;94861.34;;;2.67;100.00
52105;BME280;38103;42.776;23.112;2022-12-29T05:44:36;94859.41;;;2.69;100.00
52105;BME280;38103;42.776;23.112;2022-12-29T05:47:01;94863.66;;;2.70;100.00
52105;BME280;38103;42.776;23.112;2022-12-29T05:49:27;94858.44;;;2.70;100.00
52105;BME280;38103;42.776;23.112;2022-12-29T05:55:07;94865.91;;;2.73;100.00
52105;BME280;38103;42.776;23.112;2022-12-29T05:57:33;94867.56;;;2.74;100.00
52105;BME280;38103;42.776;23.112;2022-12-29T05:59:59;94874.44;;;2.75;100.00
52105;BME280;38103;42.776;23.112;2022-12-29T06:02:24;94867.25;;;2.77;100.00
52105;BME280;38103;42.776;23.112;2022-12-29T06:04:49;94874.06;;;2.78;100.00
52105;BME280;38103;42.776;23.112;2022-12-29T06:07:15;94871.31;;;2.80;100.00
52105;BME280;38103;42.776;23.112;2022-12-29T06:09:40;94870.50;;;2.79;100.00
52105;BME280;38103;42.776;23.112;2022-12-29T06:12:06;94875.72;;;2.79;100.00
52105;BME280;38103;42.776;23.112;2022-12-29T06:14:31;94878.34;;;2.79;100.00
52105;BME280;38103;42.776;23.112;2022-12-29T06:16:57;94882.25;;;2.84;100.00
52105;BME280;38103;42.776;23.112;2022-12-29T06:19:22;94875.41;;;2.83;100.00
52105;BME280;38103;42.776;23.112;2022-12-29T06:21:48;94877.84;;;2.84;100.00
52105;BME280;38103;42.776;23.112;2022-12-29T06:24:13;94877.38;;;2.81;100.00
52105;BME280;38103;42.776;23.112;2022-12-29T06:26:39;94872.47;;;2.77;100.00
52105;BME280;38103;42.776;23.112;2022-12-29T06:29:06;94881.25;;;2.76;100.00
52105;BME280;38103;42.776;23.112;2022-12-29T06:31:33;94876.34;;;2.73;100.00
52105;BME280;38103;42.776;23.112;2022-12-29T06:33:58;94883.22;;;2.74;100.00
52105;BME280;38103;42.776;23.112;2022-12-29T06:36:24;94885.34;;;2.79;100.00
52105;BME280;38103;42.776;23.112;2022-12-29T06:38:49;94869.19;;;2.75;100.00
52105;BME280;38103;42.776;23.112;2022-12-29T06:41:18;94873.72;;;2.48;100.00
52105;BME280;38103;42.776;23.112;2022-12-29T06:43:43;94880.22;;;2.36;100.00
52105;BME280;38103;42.776;23.112;2022-12-29T06:46:09;94882.81;;;2.27;100.00
52105;BME280;38103;42.776;23.112;2022-12-29T06:48:35;94876.31;;;2.40;100.00
52105;BME280;38103;42.776;23.112;2022-12-29T06:51:00;94858.38;;;2.45;100.00
52105;BME280;38103;42.776;23.112;2022-12-29T06:53:26;94871.44;;;2.53;100.00
52105;BME280;38103;42.776;23.112;2022-12-29T06:55:51;94891.72;;;2.76;100.00
52105;BME280;38103;42.776;23.112;2022-12-29T06:58:17;94891.38;;;2.79;100.00
52105;BME280;38103;42.776;23.112;2022-12-29T07:00:42;94888.28;;;2.76;100.00
52105;BME280;38103;42.776;23.112;2022-12-29T07:03:08;94892.69;;;2.84;100.00
52105;BME280;38103;42.776;23.112;2022-12-29T07:05:33;94902.84;;;2.95;100.00
52105;BME280;38103;42.776;23.112;2022-12-29T07:07:59;94883.91;;;2.93;100.00
52105;BME280;38103;42.776;23.112;2022-12-29T07:10:25;94901.34;;;3.09;100.00
52105;BME280;38103;42.776;23.112;2022-12-29T07:12:51;94893.03;;;3.14;100.00
52105;BME280;38103;42.776;23.112;2022-12-29T07:15:16;94896.63;;;3.21;100.00
52105;BME280;38103;42.776;23.112;2022-12-29T07:17:42;94898.56;;;3.28;100.00
52105;BME280;38103;42.776;23.112;2022-12-29T07:20:08;94899.25;;;3.30;100.00
52105;BME280;38103;42.776;23.112;2022-12-29T07:22:34;94903.00;;;3.10;100.00
52105;BME280;38103;42.776;23.112;2022-12-29T07:24:59;94873.94;;;2.88;100.00
52105;BME280;38103;42.776;23.112;2022-12-29T07:27:25;94900.38;;;3.19;100.00
52105;BME280;38103;42.776;23.112;2022-12-29T07:29:50;94894.97;;;3.20;100.00
52105;BME280;38103;42.776;23.112;2022-12-29T07:32:16;94843.06;;;2.92;100.00
52105;BME280;38103;42.776;23.112;2022-12-29T07:34:41;94892.69;;;3.34;100.00
52105;BME280;38103;42.776;23.112;2022-12-29T07:37:07;94898.72;;;3.18;100.00
52105;BME280;38103;42.776;23.112;2022-12-29T07:39:32;94904.44;;;3.05;100.00
52105;BME280;38103;42.776;23.112;2022-12-29T07:41:58;94877.69;;;3.11;100.00
52105;BME280;38103;42.776;23.112;2022-12-29T07:44:23;94865.25;;;3.13;100.00
52105;BME280;38103;42.776;23.112;2022-12-29T07:46:49;94898.22;;;3.48;100.00
52105;BME280;38103;42.776;23.112;2022-12-29T07:49:20;94861.31;;;3.34;100.00
52105;BME280;38103;42.776;23.112;2022-12-29T07:51:46;94906.41;;;3.36;100.00
52105;BME280;38103;42.776;23.112;2022-12-29T07:54:20;94906.75;;;3.08;100.00
52105;BME280;38103;42.776;23.112;2022-12-29T07:56:45;94905.44;;;3.29;100.00
52105;BME280;38103;42.776;23.112;2022-12-29T07:59:11;94909.69;;;2.96;100.00
52105;BME280;38103;42.776;23.112;2022-12-29T08:01:37;94899.06;;;2.98;100.00
52105;BME280;38103;42.776;23.112;2022-12-29T08:04:03;94907.41;;;3.10;100.00
52105;BME280;38103;42.776;23.112;2022-12-29T08:06:28;94911.94;;;3.33;100.00
52105;BME280;38103;42.776;23.112;2022-12-29T08:08:56;94908.38;;;3.42;100.00
52105;BME280;38103;42.776;23.112;2022-12-29T08:11:22;94879.13;;;3.39;100.00
52105;BME280;38103;42.776;23.112;2022-12-29T08:13:48;94909.00;;;3.44;100.00
52105;BME280;38103;42.776;23.112;2022-12-29T08:16:15;94911.31;;;3.48;100.00
52105;BME280;38103;42.776;23.112;2022-12-29T08:18:40;94909.34;;;3.41;100.00
52105;BME280;38103;42.776;23.112;2022-12-29T08:21:05;94904.59;;;3.45;100.00
52105;BME280;38103;42.776;23.112;2022-12-29T08:23:31;94914.56;;;3.41;100.00
52105;BME280;38103;42.776;23.112;2022-12-29T08:25:58;94923.88;;;3.61;100.00
52105;BME280;38103;42.776;23.112;2022-12-29T08:28:24;94901.09;;;3.69;100.00
52105;BME280;38103;42.776;23.112;2022-12-29T08:30:49;94843.97;;;3.50;100.00
52105;BME280;38103;42.776;23.112;2022-12-29T08:33:15;94906.19;;;4.20;100.00
52105;BME280;38103;42.776;23.112;2022-12-29T08:35:40;94905.75;;;4.40;99.76
52105;BME280;38103;42.776;23.112;2022-12-29T08:38:06;94905.41;;;4.43;96.79
52105;BME280;38103;42.776;23.112;2022-12-29T08:40:31;94849.63;;;4.10;95.84
52105;BME280;38103;42.776;23.112;2022-12-29T08:42:57;94886.69;;;4.54;95.64
52105;BME280;38103;42.776;23.112;2022-12-29T08:45:22;94910.47;;;4.76;95.62
52105;BME280;38103;42.776;23.112;2022-12-29T08:47:48;94905.66;;;4.56;92.95
52105;BME280;38103;42.776;23.112;2022-12-29T08:50:13;94850.00;;;3.99;94.54
52105;BME280;38103;42.776;23.112;2022-12-29T08:52:39;94902.34;;;4.31;94.08
52105;BME280;38103;42.776;23.112;2022-12-29T08:55:05;94884.47;;;4.43;94.77
52105;BME280;38103;42.776;23.112;2022-12-29T08:57:30;94880.50;;;4.47;95.03
52105;BME280;38103;42.776;23.112;2022-12-29T08:59:55;94898.09;;;4.62;95.20
52105;BME280;38103;42.776;23.112;2022-12-29T09:02:21;94892.03;;;4.85;93.67
52105;BME280;38103;42.776;23.112;2022-12-29T09:04:46;94872.88;;;4.69;93.13
52105;BME280;38103;42.776;23.112;2022-12-29T09:07:12;94883.91;;;4.79;93.44
52105;BME280;38103;42.776;23.112;2022-12-29T09:09:38;94829.94;;;4.70;93.65
52105;BME280;38103;42.776;23.112;2022-12-29T09:12:04;94871.66;;;4.95;93.08
52105;BME280;38103;42.776;23.112;2022-12-29T09:14:29;94871.09;;;4.85;93.30
52105;BME280;38103;42.776;23.112;2022-12-29T09:16:55;94840.38;;;4.78;94.10
52105;BME280;38103;42.776;23.112;2022-12-29T09:19:39;94847.91;;;4.97;92.79
52105;BME280;38103;42.776;23.112;2022-12-29T09:22:04;94869.56;;;5.14;93.78
52105;BME280;38103;42.776;23.112;2022-12-29T09:24:30;94878.00;;;5.40;92.76
52105;BME280;38103;42.776;23.112;2022-12-29T09:26:56;94876.31;;;5.08;92.59
52105;BME280;38103;42.776;23.112;2022-12-29T09:29:22;94872.72;;;4.86;92.92
52105;BME280;38103;42.776;23.112;2022-12-29T09:31:47;94871.16;;;5.00;92.82
52105;BME280;38103;42.776;23.112;2022-12-29T09:34:13;94868.91;;;4.73;93.30
52105;BME280;38103;42.776;23.112;2022-12-29T09:36:38;94869.81;;;4.57;93.79
52105;BME280;38103;42.776;23.112;2022-12-29T09:39:03;94859.91;;;4.67;94.18
52105;BME280;38103;42.776;23.112;2022-12-29T09:41:40;94871.09;;;4.61;94.54
52105;BME280;38103;42.776;23.112;2022-12-29T09:46:37;94821.09;;;4.71;93.60
52105;BME280;38103;42.776;23.112;2022-12-29T09:49:08;94852.59;;;5.25;92.84
52105;BME280;38103;42.776;23.112;2022-12-29T09:51:38;94849.78;;;5.42;92.39
52105;BME280;38103;42.776;23.112;2022-12-29T09:54:39;94839.69;;;5.54;91.11
52105;BME280;38103;42.776;23.112;2022-12-29T09:57:17;94818.44;;;5.48;91.25
52105;BME280;38103;42.776;23.112;2022-12-29T09:59:46;94827.28;;;5.47;89.78
52105;BME280;38103;42.776;23.112;2022-12-29T10:02:31;94840.13;;;5.73;89.35
52105;BME280;38103;42.776;23.112;2022-12-29T10:04:57;94832.78;;;5.83;88.49
52105;BME280;38103;42.776;23.112;2022-12-29T10:10:16;94829.34;;;5.67;89.92
52105;BME280;38103;42.776;23.112;2022-12-29T10:13:00;94831.63;;;5.40;90.90
52105;BME280;38103;42.776;23.112;2022-12-29T10:15:55;94826.94;;;5.51;92.00
52105;BME280;38103;42.776;23.112;2022-12-29T10:23:44;94816.78;;;5.47;90.88
52105;BME280;38103;42.776;23.112;2022-12-29T10:26:17;94816.59;;;5.34;91.65
52105;BME280;38103;42.776;23.112;2022-12-29T10:28:57;94795.19;;;5.15;92.87
52105;BME280;38103;42.776;23.112;2022-12-29T10:31:31;94802.22;;;5.45;92.26
52105;BME280;38103;42.776;23.112;2022-12-29T10:34:02;94799.78;;;5.74;91.68
52105;BME280;38103;42.776;23.112;2022-12-29T10:36:36;94799.19;;;5.93;91.74
52105;BME280;38103;42.776;23.112;2022-12-29T10:39:19;94803.72;;;6.00;89.32
52105;BME280;38103;42.776;23.112;2022-12-29T10:42:03;94795.28;;;6.04;89.50
52105;BME280;38103;42.776;23.112;2022-12-29T10:44:31;94791.38;;;6.31;88.63
52105;BME280;38103;42.776;23.112;2022-12-29T10:47:02;94791.16;;;6.32;88.53
52105;BME280;38103;42.776;23.112;2022-12-29T10:49:32;94797.19;;;6.26;88.24
52105;BME280;38103;42.776;23.112;2022-12-29T10:52:03;94787.28;;;6.50;87.69
52105;BME280;38103;42.776;23.112;2022-12-29T10:54:38;94792.19;;;6.53;87.62
52105;BME280;38103;42.776;23.112;2022-12-29T10:57:10;94785.16;;;6.61;86.84
52105;BME280;38103;42.776;23.112;2022-12-29T10:59:38;94780.47;;;6.56;86.09
52105;BME280;38103;42.776;23.112;2022-12-29T11:02:13;94776.03;;;6.56;86.67
52105;BME280;38103;42.776;23.112;2022-12-29T11:07:21;94777.22;;;6.54;86.82
52105;BME280;38103;42.776;23.112;2022-12-29T11:09:46;94766.78;;;6.61;86.72
52105;BME280;38103;42.776;23.112;2022-12-29T11:12:29;94766.41;;;6.64;86.57
52105;BME280;38103;42.776;23.112;2022-12-29T11:17:58;94762.97;;;6.92;84.60
52105;BME280;38103;42.776;23.112;2022-12-29T11:20:37;94762.16;;;6.91;85.00
52105;BME280;38103;42.776;23.112;2022-12-29T11:23:05;94751.53;;;7.07;84.63
52105;BME280;38103;42.776;23.112;2022-12-29T11:25:45;94761.81;;;7.01;85.39
52105;BME280;38103;42.776;23.112;2022-12-29T11:28:16;94755.44;;;7.11;85.06
52105;BME280;38103;42.776;23.112;2022-12-29T11:30:42;94708.47;;;7.08;85.12
52105;BME280;38103;42.776;23.112;2022-12-29T11:33:08;94766.00;;;7.24;85.25
52105;BME280;38103;42.776;23.112;2022-12-29T11:35:38;94621.63;;;6.52;86.65
52105;BME280;38103;42.776;23.112;2022-12-29T11:38:06;94756.31;;;7.25;86.71
52105;BME280;38103;42.776;23.112;2022-12-29T11:40:42;94751.03;;;7.18;87.24
52105;BME280;38103;42.776;23.112;2022-12-29T11:45:47;94750.66;;;7.21;86.63
52105;BME280;38103;42.776;23.112;2022-12-29T11:48:20;94743.25;;;7.38;87.19
52105;BME280;38103;42.776;23.112;2022-12-29T11:51:04;94748.72;;;7.37;86.37
52105;BME280;38103;42.776;23.112;2022-12-29T11:53:42;94739.31;;;7.28;86.79
52105;BME280;38103;42.776;23.112;2022-12-29T11:56:12;94696.41;;;7.20;86.23
52105;BME280;38103;42.776;23.112;2022-12-29T11:58:39;94742.19;;;7.33;86.52
52105;BME280;38103;42.776;23.112;2022-12-29T12:01:17;94743.00;;;7.26;86.86
52105;BME280;38103;42.776;23.112;2022-12-29T12:06:27;94743.97;;;6.90;89.08
52105;BME280;38103;42.776;23.112;2022-12-29T12:08:57;94742.78;;;6.92;89.34
52105;BME280;38103;42.776;23.112;2022-12-29T12:11:28;94736.44;;;7.15;88.35
52105;BME280;38103;42.776;23.112;2022-12-29T12:17:16;94616.97;;;6.25;88.56
52105;BME280;38103;42.776;23.112;2022-12-29T12:20:02;94727.28;;;7.11;88.44
52105;BME280;38103;42.776;23.112;2022-12-29T12:22:35;94726.09;;;7.14;89.29
52105;BME280;38103;42.776;23.112;2022-12-29T12:25:09;94729.59;;;7.21;87.58
52105;BME280;38103;42.776;23.112;2022-12-29T12:27:40;94720.81;;;7.07;88.79
52105;BME280;38103;42.776;23.112;2022-12-29T12:30:15;94670.81;;;7.00;88.89
52105;BME280;38103;42.776;23.112;2022-12-29T12:32:58;94707.84;;;7.41;87.62
52105;BME280;38103;42.776;23.112;2022-12-29T12:36:22;94698.97;;;7.56;86.05
52105;BME280;38103;42.776;23.112;2022-12-29T12:38:40;94700.81;;;7.55;86.18
52105;BME280;38103;42.776;23.112;2022-12-29T12:44:00;94705.13;;;7.77;85.07
52105;BME280;38103;42.776;23.112;2022-12-29T12:52:27;94708.28;;;8.21;83.08
52105;BME280;38103;42.776;23.112;2022-12-29T13:00:36;94701.41;;;8.41;82.51
52105;BME280;38103;42.776;23.112;2022-12-29T13:03:47;94693.69;;;8.46;81.66
52105;BME280;38103;42.776;23.112;2022-12-29T13:12:06;94671.59;;;8.06;83.31
52105;BME280;38103;42.776;23.112;2022-12-29T13:14:43;94701.19;;;8.35;83.33
52105;BME280;38103;42.776;23.112;2022-12-29T13:17:34;94705.66;;;8.42;83.24
52105;BME280;38103;42.776;23.112;2022-12-29T13:20:23;94706.88;;;8.46;83.45
52105;BME280;38103;42.776;23.112;2022-12-29T13:25:42;94709.53;;;8.59;83.33
52105;BME280;38103;42.776;23.112;2022-12-29T13:28:22;94709.72;;;8.51;83.47
52105;BME280;38103;42.776;23.112;2022-12-29T13:31:04;94710.31;;;8.53;83.15
52105;BME280;38103;42.776;23.112;2022-12-29T13:34:05;94713.16;;;8.45;82.98
52105;BME280;38103;42.776;23.112;2022-12-29T13:36:45;94710.94;;;8.48;84.11
52105;BME280;38103;42.776;23.112;2022-12-29T13:41:57;94706.28;;;8.57;82.72
52105;BME280;38103;42.776;23.112;2022-12-29T13:44:32;94667.16;;;8.34;82.35
52105;BME280;38103;42.776;23.112;2022-12-29T13:47:02;94660.66;;;8.23;83.10
52105;BME280;38103;42.776;23.112;2022-12-29T13:49:30;94709.72;;;8.58;82.59
52105;BME280;38103;42.776;23.112;2022-12-29T13:52:27;94711.59;;;8.71;83.04
52105;BME280;38103;42.776;23.112;2022-12-29T14:00:16;94706.47;;;8.76;82.94
52105;BME280;38103;42.776;23.112;2022-12-29T14:05:31;94716.22;;;8.82;82.75
52105;BME280;38103;42.776;23.112;2022-12-29T14:08:03;94715.81;;;8.86;82.60
52105;BME280;38103;42.776;23.112;2022-12-29T14:10:36;94711.75;;;8.90;82.58
52105;BME280;38103;42.776;23.112;2022-12-29T14:13:11;94715.81;;;8.92;82.07
52105;BME280;38103;42.776;23.112;2022-12-29T14:15:39;94715.81;;;8.92;81.14
52105;BME280;38103;42.776;23.112;2022-12-29T14:18:21;94679.31;;;8.69;80.65
52105;BME280;38103;42.776;23.112;2022-12-29T14:23:45;94713.78;;;8.94;80.18
52105;BME280;38103;42.776;23.112;2022-12-29T14:26:39;94718.25;;;8.94;79.72
52105;BME280;38103;42.776;23.112;2022-12-29T14:34:58;94724.53;;;8.79;79.49
52105;BME280;38103;42.776;23.112;2022-12-29T14:37:24;94727.38;;;8.78;79.12
52105;BME280;38103;42.776;23.112;2022-12-29T14:42:29;94728.41;;;8.70;78.05
52105;BME280;38103;42.776;23.112;2022-12-29T14:45:03;94731.66;;;8.72;77.94
52105;BME280;38103;42.776;23.112;2022-12-29T14:49:56;94727.38;;;8.57;78.59
52105;BME280;38103;42.776;23.112;2022-12-29T14:52:28;94733.03;;;8.54;78.69
52105;BME280;38103;42.776;23.112;2022-12-29T14:54:57;94723.47;;;8.33;79.32
52105;BME280;38103;42.776;23.112;2022-12-29T14:57:37;94689.41;;;8.04;79.84
52105;BME280;38103;42.776;23.112;2022-12-29T15:00:26;94733.16;;;8.05;80.80
52105;BME280;38103;42.776;23.112;2022-12-29T15:03:07;94727.59;;;7.73;81.75
52105;BME280;38103;42.776;23.112;2022-12-29T15:08:17;94730.56;;;7.56;82.04
52105;BME280;38103;42.776;23.112;2022-12-29T15:11:40;94731.34;;;6.78;85.79
52105;BME280;38103;42.776;23.112;2022-12-29T15:13:38;94725.13;;;6.86;86.31
52105;BME280;38103;42.776;23.112;2022-12-29T15:16:05;94730.97;;;6.81;85.50